Time;durP1;ratioP1;P1;durP2;ratioP2;P2;SDS_P1;SDS_P2;PMS_P1;PMS_P2;Temp;Humidity;BMP_temperature;BMP_pressure;BME280_temperature;BME280_humidity;BME280_pressure;Samples;Min_cycle;Max_cycle;Signal;HPM_P1;HPM_P2
2023/06/07 00:02:15;;;;;;;6.73;3.80;;;13.90;95.00;;;;;;5137015;27;20485;-72
2023/06/07 00:04:45;;;;;;;5.90;4.70;;;13.90;95.70;;;;;;5137034;27;20949;-73
2023/06/07 00:07:13;;;;;;;4.73;3.90;;;13.80;95.60;;;;;;5137291;27;20837;-72
2023/06/07 00:09:41;;;;;;;7.20;4.93;;;13.80;95.60;;;;;;5136602;27;20430;-72
2023/06/07 00:12:11;;;;;;;4.90;4.23;;;13.80;95.50;;;;;;5136526;27;20434;-72
2023/06/07 00:14:44;;;;;;;5.37;4.60;;;13.80;95.40;;;;;;5136665;27;20846;-72
2023/06/07 00:17:15;;;;;;;6.30;5.37;;;13.80;95.60;;;;;;5137151;27;20445;-72
2023/06/07 00:19:49;;;;;;;5.23;4.73;;;13.80;95.80;;;;;;5137155;27;20450;-72
2023/06/07 00:22:16;;;;;;;5.67;5.13;;;13.80;95.80;;;;;;5137208;27;20435;-72
2023/06/07 00:24:50;;;;;;;5.97;5.23;;;13.60;96.30;;;;;;5137711;27;20439;-72
2023/06/07 00:27:25;;;;;;;6.73;5.03;;;13.70;96.70;;;;;;5137506;27;20469;-73
2023/06/07 00:29:52;;;;;;;6.63;5.50;;;13.60;96.70;;;;;;5137185;27;20468;-72
2023/06/07 00:32:19;;;;;;;6.63;5.63;;;13.60;96.70;;;;;;5137006;27;20443;-72
2023/06/07 00:34:51;;;;;;;5.70;4.80;;;13.70;96.50;;;;;;5136159;27;20434;-72
2023/06/07 00:37:18;;;;;;;6.03;4.63;;;13.60;96.10;;;;;;5137372;27;20493;-72
2023/06/07 00:39:50;;;;;;;6.67;4.97;;;13.70;96.10;;;;;;5137017;27;20925;-73
2023/06/07 00:42:17;;;;;;;5.77;4.33;;;13.60;96.10;;;;;;5137271;27;20493;-73
2023/06/07 00:44:44;;;;;;;8.23;4.77;;;13.50;96.20;;;;;;5136691;27;20438;-72
2023/06/07 00:47:13;;;;;;;5.60;4.47;;;13.50;96.30;;;;;;5136752;27;20430;-72
2023/06/07 00:49:40;;;;;;;7.40;5.00;;;13.50;96.60;;;;;;5136975;27;20462;-72
2023/06/07 00:52:09;;;;;;;5.20;4.50;;;13.50;96.70;;;;;;5136021;27;20479;-72
2023/06/07 00:54:38;;;;;;;4.90;4.40;;;13.50;96.80;;;;;;5135478;27;20462;-72
2023/06/07 00:57:09;;;;;;;7.87;4.73;;;13.50;96.50;;;;;;5136038;27;20524;-72
2023/06/07 00:59:39;;;;;;;7.03;4.13;;;13.50;96.20;;;;;;5135989;27;20442;-72
2023/06/07 01:02:06;;;;;;;5.00;4.50;;;13.50;96.20;;;;;;5135566;27;20429;-72
2023/06/07 01:04:34;;;;;;;6.93;4.47;;;13.40;96.10;;;;;;5135622;27;20433;-73
2023/06/07 01:07:08;;;;;;;5.50;4.70;;;13.40;96.20;;;;;;5135283;27;20936;-73
2023/06/07 01:09:36;;;;;;;5.90;4.37;;;13.30;96.20;;;;;;5135877;27;20517;-73
2023/06/07 01:12:06;;;;;;;6.33;4.60;;;13.40;96.10;;;;;;5135208;27;20886;-73
2023/06/07 01:14:35;;;;;;;8.53;4.63;;;13.30;96.00;;;;;;5135595;27;20438;-73
2023/06/07 01:17:03;;;;;;;5.00;4.13;;;13.30;96.10;;;;;;5135900;27;20443;-73
2023/06/07 01:19:37;;;;;;;5.87;3.97;;;13.20;96.20;;;;;;5135302;27;20909;-73
2023/06/07 01:22:06;;;;;;;4.80;4.40;;;13.20;96.50;;;;;;5135565;27;20456;-73
2023/06/07 01:24:42;;;;;;;5.00;4.35;;;13.20;96.60;;;;;;5135318;27;20831;-73
2023/06/07 01:27:16;;;;;;;5.07;4.10;;;13.10;96.40;;;;;;5135316;27;20702;-72
2023/06/07 01:29:45;;;;;;;6.17;4.60;;;13.10;96.30;;;;;;5135388;27;20433;-73
2023/06/07 01:32:13;;;;;;;6.00;4.63;;;13.10;96.40;;;;;;5135353;27;20484;-73
2023/06/07 01:34:43;;;;;;;4.67;3.80;;;13.00;96.00;;;;;;5135141;27;20476;-73
2023/06/07 01:37:15;;;;;;;5.40;4.90;;;12.90;96.10;;;;;;5135406;27;20529;-72
2023/06/07 01:39:44;;;;;;;6.77;5.00;;;12.90;96.40;;;;;;5135385;27;20446;-72
2023/06/07 01:42:17;;;;;;;5.10;3.93;;;12.80;96.50;;;;;;5135094;27;20936;-72
2023/06/07 01:44:50;;;;;;;8.10;5.70;;;12.80;96.70;;;;;;5135111;27;20734;-73
2023/06/07 01:47:18;;;;;;;6.90;4.70;;;12.80;97.00;;;;;;5134549;27;20440;-72
2023/06/07 01:49:45;;;;;;;6.65;5.32;;;12.70;97.00;;;;;;5134273;27;20441;-72
2023/06/07 01:52:13;;;;;;;7.90;5.00;;;12.70;97.20;;;;;;5134820;27;20219;-72
2023/06/07 01:54:45;;;;;;;4.83;4.33;;;12.70;97.30;;;;;;5134773;27;20834;-72
2023/06/07 01:57:25;;;;;;;8.87;4.30;;;12.70;97.60;;;;;;5135041;27;20779;-72
2023/06/07 02:00:05;;;;;;;5.03;4.63;;;12.70;97.40;;;;;;5134651;27;20431;-72
2023/06/07 02:02:40;;;;;;;4.70;4.20;;;12.70;96.90;;;;;;5134292;27;20433;-72
2023/06/07 02:05:17;;;;;;;5.07;4.57;;;12.60;96.60;;;;;;5134161;27;20446;-73
2023/06/07 02:07:49;;;;;;;5.70;4.80;;;12.60;96.70;;;;;;5134400;27;20465;-73
2023/06/07 02:10:23;;;;;;;4.10;3.67;;;12.60;96.80;;;;;;5134523;27;20483;-73
2023/06/07 02:12:55;;;;;;;5.00;4.50;;;12.60;96.70;;;;;;5134162;27;20442;-72
2023/06/07 02:15:36;;;;;;;7.63;4.60;;;12.50;96.60;;;;;;5134101;27;20439;-73
2023/06/07 02:18:05;;;;;;;5.07;4.22;;;12.40;96.30;;;;;;5133986;27;20282;-73
2023/06/07 02:20:35;;;;;;;6.32;4.88;;;12.40;96.30;;;;;;5134294;27;20656;-72
2023/06/07 02:23:03;;;;;;;4.30;3.80;;;12.30;96.40;;;;;;5134094;27;20642;-73
2023/06/07 02:25:34;;;;;;;5.30;4.50;;;12.30;96.70;;;;;;5133959;27;20791;-73
2023/06/07 02:28:02;;;;;;;5.03;3.63;;;12.30;96.90;;;;;;5134169;27;20933;-72
2023/06/07 02:30:32;;;;;;;5.05;4.00;;;12.30;97.00;;;;;;5134221;27;20278;-73
2023/06/07 02:33:01;;;;;;;5.53;4.57;;;12.20;96.90;;;;;;5133951;27;20544;-72
2023/06/07 02:35:29;;;;;;;5.47;4.97;;;12.20;97.20;;;;;;5134284;27;20429;-72
2023/06/07 02:37:58;;;;;;;4.82;4.30;;;12.10;97.30;;;;;;5134064;27;20216;-72
2023/06/07 02:40:27;;;;;;;5.93;4.47;;;12.10;97.40;;;;;;5133901;27;20653;-73
2023/06/07 02:42:55;;;;;;;5.03;4.53;;;12.10;97.50;;;;;;5134237;27;20196;-72
2023/06/07 02:45:24;;;;;;;5.38;4.28;;;12.10;97.60;;;;;;5134017;27;20192;-72
2023/06/07 02:47:56;;;;;;;6.28;4.00;;;12.00;97.60;;;;;;5133958;27;20193;-72
2023/06/07 02:50:26;;;;;;;5.10;4.10;;;12.00;97.40;;;;;;5133668;27;20196;-72
2023/06/07 02:52:53;;;;;;;4.95;4.25;;;11.90;97.40;;;;;;5133724;27;20221;-72
2023/06/07 02:55:25;;;;;;;5.30;4.10;;;11.90;97.40;;;;;;5133347;27;20228;-72
2023/06/07 02:57:53;;;;;;;6.40;4.15;;;11.80;97.50;;;;;;5132958;27;20522;-72
2023/06/07 03:00:23;;;;;;;4.57;4.13;;;11.80;97.30;;;;;;5133500;27;20640;-73
2023/06/07 03:02:50;;;;;;;6.05;4.50;;;11.80;97.10;;;;;;5133484;27;20187;-73
2023/06/07 03:05:19;;;;;;;5.72;5.03;;;11.80;97.00;;;;;;5133907;27;20223;-72
2023/06/07 03:07:50;;;;;;;8.93;6.40;;;11.80;97.20;;;;;;5133573;27;20200;-72
2023/06/07 03:10:17;;;;;;;6.38;5.57;;;11.80;97.20;;;;;;5133495;27;20195;-73
2023/06/07 03:12:47;;;;;;;8.63;6.40;;;11.70;97.30;;;;;;5133487;27;20243;-72
2023/06/07 03:15:15;;;;;;;9.15;6.78;;;11.70;97.70;;;;;;5133494;27;20214;-72
2023/06/07 03:17:46;;;;;;;6.45;5.38;;;11.70;97.80;;;;;;5133661;27;20196;-73
2023/06/07 03:20:18;;;;;;;7.63;6.13;;;11.70;98.10;;;;;;5133908;27;20201;-72
2023/06/07 03:22:45;;;;;;;6.78;5.93;;;11.70;98.10;;;;;;5133412;27;20569;-72
2023/06/07 03:25:15;;;;;;;11.35;8.70;;;11.70;98.20;;;;;;5133516;27;20192;-73
2023/06/07 03:27:46;;;;;;;8.88;7.25;;;11.60;98.10;;;;;;5133728;27;20899;-72
2023/06/07 03:30:22;;;;;;;10.05;7.00;;;11.60;98.20;;;;;;5133891;28;20193;-72
2023/06/07 03:32:54;;;;;;;7.72;5.20;;;11.70;98.30;;;;;;5133260;27;20223;-72
2023/06/07 03:35:23;;;;;;;7.05;6.00;;;11.70;98.30;;;;;;5133591;28;20197;-72
2023/06/07 03:37:50;;;;;;;8.35;5.70;;;11.70;98.40;;;;;;5133486;27;20189;-72
2023/06/07 03:40:19;;;;;;;7.22;5.68;;;11.70;98.30;;;;;;5133380;28;20196;-72
2023/06/07 03:42:48;;;;;;;6.57;5.25;;;11.70;98.10;;;;;;5132838;28;20185;-72
2023/06/07 03:45:17;;;;;;;6.63;5.60;;;11.70;97.80;;;;;;5133327;27;20712;-73
2023/06/07 03:47:45;;;;;;;7.60;5.90;;;11.80;97.60;;;;;;5133499;27;20196;-73
2023/06/07 03:50:14;;;;;;;6.80;5.53;;;11.80;97.80;;;;;;5133478;28;20624;-73
2023/06/07 03:52:48;;;;;;;6.78;4.65;;;11.80;97.90;;;;;;5132779;27;20701;-72
2023/06/07 03:55:19;;;;;;;7.35;6.10;;;11.80;97.90;;;;;;5132950;27;20228;-73
2023/06/07 03:57:49;;;;;;;6.25;5.53;;;11.80;98.00;;;;;;5133318;27;20197;-73
2023/06/07 04:00:21;;;;;;;6.22;5.60;;;11.80;97.80;;;;;;5133276;27;20185;-72
2023/06/07 04:02:50;;;;;;;7.13;5.60;;;11.80;97.80;;;;;;5133157;27;20216;-73
2023/06/07 04:05:19;;;;;;;6.90;5.00;;;11.90;97.90;;;;;;5133247;27;20250;-72
2023/06/07 04:07:47;;;;;;;6.65;4.97;;;11.90;98.00;;;;;;5133524;27;20223;-73
2023/06/07 04:10:17;;;;;;;5.32;4.68;;;11.80;97.90;;;;;;5136136;27;20195;-72
2023/06/07 04:12:46;;;;;;;5.38;4.88;;;11.80;98.30;;;;;;5138208;27;20237;-72
2023/06/07 04:15:19;;;;;;;6.95;5.07;;;11.90;98.70;;;;;;5137041;27;20202;-73
2023/06/07 04:17:50;;;;;;;6.22;5.10;;;12.00;98.80;;;;;;5136883;27;20193;-72
2023/06/07 04:20:19;;;;;;;10.23;5.80;;;12.00;98.30;;;;;;5137085;27;20189;-72
2023/06/07 04:22:51;;;;;;;6.13;5.10;;;12.10;98.70;;;;;;5137055;27;20193;-73
2023/06/07 04:25:21;;;;;;;6.05;5.28;;;12.10;98.10;;;;;;5136578;27;20473;-72
2023/06/07 04:27:51;;;;;;;7.63;5.22;;;12.10;98.00;;;;;;5136951;27;20200;-72
2023/06/07 04:30:18;;;;;;;11.43;6.00;;;12.10;98.20;;;;;;5136911;27;20199;-73
2023/06/07 04:32:46;;;;;;;6.73;5.13;;;12.10;98.30;;;;;;5136375;27;20715;-72
2023/06/07 04:35:14;;;;;;;7.18;5.25;;;12.20;98.40;;;;;;5136759;27;20508;-72
2023/06/07 04:37:45;;;;;;;9.43;4.90;;;12.30;99.00;;;;;;5136430;27;20214;-72
2023/06/07 04:40:14;;;;;;;6.68;4.85;;;12.40;98.70;;;;;;5136778;27;20196;-73
2023/06/07 04:42:46;;;;;;;6.53;5.43;;;12.50;98.70;;;;;;5136212;27;20189;-73
2023/06/07 04:45:16;;;;;;;5.65;4.97;;;12.50;98.90;;;;;;5136852;27;20192;-73
2023/06/07 04:47:47;;;;;;;7.07;6.40;;;12.60;98.90;;;;;;5136571;27;20585;-72
2023/06/07 04:50:16;;;;;;;7.55;5.70;;;12.70;98.80;;;;;;5136153;27;20221;-73
2023/06/07 04:52:49;;;;;;;6.20;5.57;;;12.70;98.60;;;;;;5136544;27;20251;-73
2023/06/07 04:55:22;;;;;;;7.07;5.60;;;12.70;98.60;;;;;;5136335;27;20690;-72
2023/06/07 04:57:54;;;;;;;7.57;6.40;;;12.80;99.00;;;;;;5136026;27;20439;-73
2023/06/07 05:00:24;;;;;;;6.40;5.60;;;12.90;98.80;;;;;;5136055;27;20440;-73
2023/06/07 05:02:53;;;;;;;7.30;4.90;;;13.00;98.60;;;;;;5135564;27;20484;-72
2023/06/07 05:05:22;;;;;;;6.90;6.13;;;13.00;98.80;;;;;;5135799;27;20439;-73
2023/06/07 05:07:50;;;;;;;5.57;5.03;;;13.10;98.40;;;;;;5135960;27;20444;-72
2023/06/07 05:10:20;;;;;;;7.03;6.03;;;13.20;98.20;;;;;;5135498;27;20856;-72
2023/06/07 05:12:50;;;;;;;6.33;5.53;;;13.20;98.50;;;;;;5135778;27;20948;-73
2023/06/07 05:15:21;;;;;;;6.57;5.73;;;13.30;98.80;;;;;;5135549;27;20438;-72
2023/06/07 05:17:49;;;;;;;5.50;4.93;;;13.40;99.20;;;;;;5135619;27;20940;-72
2023/06/07 05:20:24;;;;;;;6.23;5.57;;;13.50;99.30;;;;;;5135740;27;20438;-72
2023/06/07 05:22:53;;;;;;;6.37;5.77;;;13.60;99.30;;;;;;5135211;27;20933;-72
2023/06/07 05:25:21;;;;;;;9.57;6.40;;;13.70;99.30;;;;;;5135433;27;20433;-72
2023/06/07 05:28:00;;;;;;;8.47;6.87;;;13.80;99.00;;;;;;5135757;27;20525;-72
2023/06/07 05:30:29;;;;;;;7.93;6.10;;;13.90;98.10;;;;;;5135351;27;20453;-72
2023/06/07 05:32:58;;;;;;;6.10;4.97;;;14.00;97.50;;;;;;5135023;27;20573;-72
2023/06/07 05:35:30;;;;;;;5.60;5.00;;;14.10;97.40;;;;;;5131349;27;20435;-73
2023/06/07 05:37:58;;;;;;;5.63;5.00;;;14.20;97.50;;;;;;5133587;27;20514;-72
2023/06/07 05:40:25;;;;;;;5.70;5.10;;;14.40;97.70;;;;;;5132768;27;20431;-72
2023/06/07 05:42:56;;;;;;;6.47;5.87;;;14.50;97.80;;;;;;5133868;27;20438;-73
2023/06/07 05:45:23;;;;;;;7.00;4.80;;;14.60;97.80;;;;;;5133214;27;20432;-72
2023/06/07 05:47:50;;;;;;;6.07;5.00;;;14.80;97.70;;;;;;5133181;27;20487;-72
2023/06/07 05:50:20;;;;;;;5.73;5.17;;;14.90;97.50;;;;;;5133067;27;20459;-72
2023/06/07 05:53:02;;;;;;;6.10;5.50;;;15.10;97.00;;;;;;5132741;27;20482;-72
2023/06/07 05:55:29;;;;;;;7.30;5.10;;;15.10;96.70;;;;;;5133127;27;20543;-72
2023/06/07 05:57:57;;;;;;;5.20;4.70;;;15.20;96.60;;;;;;5132832;27;20441;-72
2023/06/07 06:00:24;;;;;;;6.67;4.50;;;15.40;96.60;;;;;;5133504;27;20442;-72
2023/06/07 06:02:52;;;;;;;5.00;4.50;;;15.50;96.70;;;;;;5132940;27;20439;-72
2023/06/07 06:05:20;;;;;;;6.37;4.57;;;15.60;96.40;;;;;;5125900;27;20435;-72
2023/06/07 06:07:48;;;;;;;12.00;5.23;;;15.70;96.40;;;;;;5132981;27;20777;-72
2023/06/07 06:10:17;;;;;;;6.83;5.70;;;15.80;96.20;;;;;;5132378;27;20443;-72
2023/06/07 06:12:44;;;;;;;6.47;5.57;;;15.90;95.90;;;;;;5131984;27;20482;-72
2023/06/07 06:15:12;;;;;;;5.33;4.83;;;16.00;96.00;;;;;;5132733;27;20588;-73
2023/06/07 06:17:38;;;;;;;8.70;6.30;;;16.20;96.10;;;;;;5130285;27;20526;-72
2023/06/07 06:20:07;;;;;;;6.40;5.50;;;16.20;96.10;;;;;;5131576;27;20443;-72
2023/06/07 06:22:34;;;;;;;9.33;6.50;;;16.40;96.30;;;;;;5132401;27;20435;-72
2023/06/07 06:25:01;;;;;;;7.50;5.83;;;16.50;95.60;;;;;;5131756;27;20450;-72
2023/06/07 06:27:30;;;;;;;6.50;5.80;;;16.60;95.50;;;;;;5132385;27;20859;-72
2023/06/07 06:30:02;;;;;;;6.90;6.07;;;16.80;95.60;;;;;;5132512;27;20440;-72
2023/06/07 06:32:34;;;;;;;5.80;5.20;;;16.80;95.00;;;;;;5127557;27;20481;-72
2023/06/07 06:35:01;;;;;;;5.87;5.30;;;16.90;94.90;;;;;;5132380;27;20832;-72
2023/06/07 06:37:28;;;;;;;6.00;4.93;;;17.10;94.90;;;;;;5129060;27;20496;-72
2023/06/07 06:39:55;;;;;;;6.07;4.63;;;17.20;94.40;;;;;;5131795;27;20434;-72
2023/06/07 06:42:22;;;;;;;17.07;6.07;;;17.30;93.70;;;;;;5132173;27;20484;-72
2023/06/07 06:44:50;;;;;;;6.20;5.10;;;17.40;93.00;;;;;;5131299;27;20435;-72
2023/06/07 06:47:17;;;;;;;5.27;4.23;;;17.50;93.00;;;;;;5131432;27;20439;-72
2023/06/07 06:49:44;;;;;;;6.87;5.20;;;17.60;92.80;;;;;;5127747;27;20435;-73
2023/06/07 06:52:12;;;;;;;5.27;4.50;;;17.80;93.10;;;;;;5131935;27;20611;-73
2023/06/07 06:54:41;;;;;;;5.13;4.63;;;17.90;92.70;;;;;;5131589;27;20466;-73
2023/06/07 06:57:08;;;;;;;6.23;4.80;;;18.00;92.40;;;;;;5131588;27;20774;-73
2023/06/07 06:59:37;;;;;;;5.53;4.60;;;18.10;92.30;;;;;;5132291;27;20460;-73
2023/06/07 07:02:06;;;;;;;5.73;4.80;;;18.20;91.80;;;;;;5129382;27;21014;-73
2023/06/07 07:04:34;;;;;;;5.90;4.70;;;18.30;91.40;;;;;;5129685;27;20523;-73
2023/06/07 07:07:01;;;;;;;9.07;5.50;;;18.40;91.40;;;;;;5130884;27;20440;-73
2023/06/07 07:09:28;;;;;;;7.33;5.03;;;18.50;91.10;;;;;;5132614;27;20853;-73
2023/06/07 07:11:56;;;;;;;5.47;4.60;;;18.60;91.20;;;;;;5132655;27;20444;-72
2023/06/07 07:14:26;;;;;;;5.47;4.60;;;18.80;91.00;;;;;;5133844;27;20796;-73
2023/06/07 07:16:56;;;;;;;6.87;5.13;;;18.90;91.00;;;;;;5134010;27;20854;-73
2023/06/07 07:19:27;;;;;;;7.30;5.83;;;19.00;90.80;;;;;;5133764;27;20432;-73
2023/06/07 07:21:54;;;;;;;9.10;4.77;;;19.10;90.30;;;;;;5133403;27;20479;-73
2023/06/07 07:24:21;;;;;;;5.30;4.00;;;19.30;90.20;;;;;;5133802;27;20493;-73
2023/06/07 07:26:48;;;;;;;5.00;4.33;;;19.40;88.00;;;;;;5130011;27;20428;-73
2023/06/07 07:29:15;;;;;;;5.60;4.30;;;19.50;88.00;;;;;;5132253;27;20471;-73
2023/06/07 07:31:43;;;;;;;4.60;3.87;;;19.60;86.90;;;;;;5132649;27;20433;-73
2023/06/07 07:34:10;;;;;;;6.23;4.37;;;19.80;87.00;;;;;;5132461;27;20483;-73
2023/06/07 07:36:39;;;;;;;5.40;3.73;;;19.90;84.70;;;;;;5133160;27;20459;-73
2023/06/07 07:39:06;;;;;;;5.03;4.17;;;20.00;84.50;;;;;;5133250;27;20439;-73
2023/06/07 07:41:33;;;;;;;6.60;4.73;;;20.10;82.50;;;;;;5133620;27;20477;-73
2023/06/07 07:44:00;;;;;;;4.87;3.80;;;20.20;81.70;;;;;;5133967;27;20440;-73
2023/06/07 07:46:28;;;;;;;5.27;3.87;;;20.30;81.20;;;;;;5137397;27;20444;-73
2023/06/07 07:48:57;;;;;;;7.43;4.13;;;20.50;80.80;;;;;;5137567;27;20521;-73
2023/06/07 07:51:24;;;;;;;4.70;3.60;;;20.60;81.40;;;;;;5137171;27;20472;-73
2023/06/07 07:53:52;;;;;;;5.73;3.60;;;20.70;81.10;;;;;;5137173;27;20489;-73
2023/06/07 07:56:24;;;;;;;5.23;4.00;;;21.00;81.30;;;;;;5137287;27;20469;-73
2023/06/07 07:58:51;;;;;;;4.83;3.60;;;21.20;78.80;;;;;;5137797;27;20789;-73
2023/06/07 08:01:20;;;;;;;5.07;3.83;;;21.20;78.40;;;;;;5137611;27;20440;-73
2023/06/07 08:03:47;;;;;;;4.30;3.20;;;21.40;75.60;;;;;;5137323;27;20436;-73
2023/06/07 08:06:16;;;;;;;5.80;3.63;;;21.50;74.60;;;;;;5137123;27;20938;-72
2023/06/07 08:08:43;;;;;;;5.30;3.80;;;21.60;74.30;;;;;;5137258;27;20437;-74
2023/06/07 08:11:11;;;;;;;5.70;3.40;;;21.70;73.80;;;;;;5137332;27;20534;-73
2023/06/07 08:13:38;;;;;;;5.03;4.53;;;21.80;73.60;;;;;;5136769;27;20478;-73
2023/06/07 08:16:06;;;;;;;6.17;4.60;;;21.90;74.30;;;;;;5136998;27;20785;-73
2023/06/07 08:18:33;;;;;;;5.50;3.70;;;22.00;71.80;;;;;;5136859;27;20529;-73
2023/06/07 08:21:00;;;;;;;5.63;3.80;;;22.20;70.60;;;;;;5136983;27;20448;-73
2023/06/07 08:23:27;;;;;;;4.40;3.37;;;22.30;70.90;;;;;;5137026;27;20494;-73
2023/06/07 08:25:54;;;;;;;5.73;3.80;;;22.40;72.60;;;;;;5136821;27;20478;-74
2023/06/07 08:28:22;;;;;;;7.23;3.93;;;22.50;72.00;;;;;;5136704;27;20951;-74
2023/06/07 08:30:49;;;;;;;5.43;3.50;;;22.70;70.40;;;;;;5136963;27;20436;-73
2023/06/07 08:33:16;;;;;;;4.90;3.90;;;22.80;67.90;;;;;;5136547;27;20494;-73
2023/06/07 08:35:43;;;;;;;6.50;3.60;;;22.90;68.80;;;;;;5136177;27;20475;-73
2023/06/07 08:38:10;;;;;;;4.00;3.20;;;23.10;68.50;;;;;;5136916;27;20829;-73
2023/06/07 08:40:41;;;;;;;4.40;3.00;;;23.20;65.50;;;;;;5136602;27;20531;-73
2023/06/07 08:43:09;;;;;;;4.53;3.37;;;23.30;64.50;;;;;;5136385;27;20437;-74
2023/06/07 08:45:37;;;;;;;3.90;3.00;;;23.30;64.40;;;;;;5136705;27;20530;-74
2023/06/07 08:48:07;;;;;;;4.87;3.10;;;23.40;64.80;;;;;;5136065;27;20487;-74
2023/06/07 08:50:34;;;;;;;4.00;2.63;;;23.50;62.90;;;;;;5136588;27;20440;-74
2023/06/07 08:53:06;;;;;;;3.80;2.90;;;23.60;61.40;;;;;;5136342;27;21057;-73
2023/06/07 08:55:34;;;;;;;5.77;2.97;;;23.60;57.70;;;;;;5135080;27;20476;-73
2023/06/07 08:58:04;;;;;;;3.87;2.63;;;23.70;57.30;;;;;;5136366;27;20531;-73
2023/06/07 09:00:32;;;;;;;4.40;2.50;;;23.80;56.60;;;;;;5136063;27;20518;-73
2023/06/07 09:03:00;;;;;;;3.70;2.87;;;23.90;56.70;;;;;;5135884;27;20447;-73
2023/06/07 09:05:31;;;;;;;4.97;3.17;;;24.00;54.30;;;;;;5136056;27;20926;-74
2023/06/07 09:07:58;;;;;;;5.70;2.80;;;24.00;53.80;;;;;;5136271;27;20809;-73
2023/06/07 09:10:25;;;;;;;4.87;3.10;;;24.00;54.40;;;;;;5135967;27;20936;-74
2023/06/07 09:12:52;;;;;;;4.50;2.70;;;24.10;55.50;;;;;;5136008;27;20843;-74
2023/06/07 09:15:20;;;;;;;4.20;3.63;;;24.30;57.20;;;;;;5136038;27;21006;-73
2023/06/07 09:17:54;;;;;;;5.10;3.23;;;24.40;55.90;;;;;;5135782;27;20440;-73
2023/06/07 09:20:23;;;;;;;4.77;2.90;;;24.50;53.80;;;;;;5135876;27;20440;-74
2023/06/07 09:22:58;;;;;;;3.40;2.60;;;24.60;53.40;;;;;;5135897;27;20524;-73
2023/06/07 09:25:25;;;;;;;4.53;2.67;;;24.70;54.00;;;;;;5132290;27;20423;-74
2023/06/07 09:27:53;;;;;;;4.47;2.80;;;24.80;54.20;;;;;;5134801;27;20532;-73
2023/06/07 09:30:20;;;;;;;4.87;3.03;;;24.90;52.80;;;;;;5135008;27;20444;-73
2023/06/07 09:32:48;;;;;;;4.70;2.73;;;24.90;52.40;;;;;;5134855;27;20527;-73
2023/06/07 09:35:16;;;;;;;3.80;3.00;;;25.00;52.00;;;;;;5134386;27;20445;-74
2023/06/07 09:37:45;;;;;;;4.23;2.50;;;25.00;48.40;;;;;;5134539;27;20446;-74
2023/06/07 09:40:14;;;;;;;3.50;2.57;;;25.00;48.20;;;;;;5134808;27;20535;-73
2023/06/07 09:42:42;;;;;;;3.80;2.70;;;25.10;47.70;;;;;;5134679;27;20478;-74
2023/06/07 09:45:11;;;;;;;3.40;2.43;;;25.20;49.20;;;;;;5132132;27;20543;-74
2023/06/07 09:47:42;;;;;;;4.40;2.50;;;25.20;47.90;;;;;;5134142;27;20536;-74
2023/06/07 09:50:11;;;;;;;3.77;2.80;;;25.30;49.30;;;;;;5131816;27;20443;-74
2023/06/07 09:52:37;;;;;;;3.80;2.30;;;25.40;47.20;;;;;;5134613;27;20434;-74
2023/06/07 09:55:27;;;;;;;4.90;3.10;;;25.40;46.40;;;;;;5134069;27;20498;-74
2023/06/07 09:57:54;;;;;;;3.13;2.47;;;25.50;46.30;;;;;;5132108;27;20444;-74
2023/06/07 10:00:21;;;;;;;5.43;3.43;;;25.60;46.40;;;;;;5133976;27;20527;-73
2023/06/07 10:02:51;;;;;;;3.67;2.40;;;25.70;45.20;;;;;;5133696;27;20841;-73
2023/06/07 10:05:21;;;;;;;4.30;2.77;;;25.80;44.90;;;;;;5134183;27;20924;-73
2023/06/07 10:07:50;;;;;;;5.27;3.00;;;25.80;46.40;;;;;;5133555;27;20470;-74
2023/06/07 10:10:22;;;;;;;4.00;2.80;;;26.00;47.60;;;;;;5133654;27;20825;-74
2023/06/07 10:12:51;;;;;;;7.90;2.87;;;26.10;45.70;;;;;;5131034;27;20863;-74
2023/06/07 10:15:22;;;;;;;4.43;3.53;;;26.20;45.60;;;;;;5135038;27;20756;-74
2023/06/07 10:17:55;;;;;;;3.27;2.50;;;26.30;44.30;;;;;;5134278;27;20463;-74
2023/06/07 10:20:27;;;;;;;6.80;2.87;;;26.50;44.10;;;;;;5134584;27;20440;-74
2023/06/07 10:23:00;;;;;;;5.23;2.80;;;26.50;43.20;;;;;;5134719;27;20531;-73
2023/06/07 10:25:31;;;;;;;5.20;2.93;;;26.60;41.50;;;;;;5134586;27;20443;-74
2023/06/07 10:28:11;;;;;;;3.50;2.43;;;26.60;40.60;;;;;;5134633;27;20925;-74
2023/06/07 10:30:43;;;;;;;3.70;3.00;;;26.70;42.30;;;;;;5134459;27;20528;-74
2023/06/07 10:33:11;;;;;;;3.97;2.87;;;26.80;38.40;;;;;;5134337;27;20437;-74
2023/06/07 10:35:38;;;;;;;4.97;2.83;;;26.80;38.90;;;;;;5134501;27;20798;-74
2023/06/07 10:38:05;;;;;;;4.10;2.63;;;26.90;38.90;;;;;;5134464;27;20453;-74
2023/06/07 10:40:34;;;;;;;6.67;2.90;;;27.00;36.40;;;;;;5133994;27;20440;-74
2023/06/07 10:43:02;;;;;;;3.57;2.90;;;27.00;35.80;;;;;;5134457;27;20523;-74
2023/06/07 10:45:29;;;;;;;8.10;4.17;;;27.10;38.30;;;;;;5134391;27;20448;-74
2023/06/07 10:47:56;;;;;;;4.93;3.00;;;27.20;39.60;;;;;;5134180;27;20526;-73
2023/06/07 10:50:48;;;;;;;3.50;2.73;;;27.30;39.30;;;;;;5134317;27;20536;-74
2023/06/07 10:53:15;;;;;;;4.93;2.87;;;27.40;37.80;;;;;;5134261;27;20927;-74
2023/06/07 10:55:44;;;;;;;5.00;3.00;;;27.50;37.60;;;;;;5134014;27;20554;-75
2023/06/07 10:58:27;;;;;;;4.20;2.77;;;27.60;37.50;;;;;;5134059;27;20440;-74
2023/06/07 11:00:56;;;;;;;4.70;2.80;;;27.60;36.20;;;;;;5128440;27;20436;-74
2023/06/07 11:03:43;;;;;;;3.77;2.90;;;27.70;36.50;;;;;;5133145;27;20444;-74
2023/06/07 11:06:11;;;;;;;3.77;2.77;;;27.70;36.90;;;;;;5130207;27;20971;-74
2023/06/07 11:08:40;;;;;;;5.13;3.10;;;27.70;34.50;;;;;;5133494;27;20796;-74
2023/06/07 11:11:40;;;;;;;2.93;2.33;;;27.70;34.80;;;;;;5133379;27;20466;-74
2023/06/07 11:14:13;;;;;;;5.87;3.67;;;27.80;36.10;;;;;;5126628;27;20799;-74
2023/06/07 11:16:40;;;;;;;4.83;2.73;;;27.80;36.20;;;;;;5132153;27;20437;-74
2023/06/07 11:19:13;;;;;;;4.37;2.70;;;27.80;36.90;;;;;;5132755;27;20836;-75
2023/06/07 11:22:00;;;;;;;5.00;2.77;;;27.80;36.70;;;;;;5133269;27;20448;-74
2023/06/07 11:24:27;;;;;;;4.17;3.13;;;27.80;36.60;;;;;;5132938;27;20434;-74
2023/06/07 11:26:54;;;;;;;3.50;2.60;;;27.90;35.40;;;;;;5132155;27;20443;-74
2023/06/07 11:29:22;;;;;;;3.80;2.90;;;28.00;36.90;;;;;;5132822;28;20438;-74
2023/06/07 11:31:56;;;;;;;4.90;3.07;;;28.00;36.90;;;;;;5133137;27;20518;-74
2023/06/07 11:34:25;;;;;;;5.90;5.10;;;28.10;37.30;;;;;;5132080;27;20480;-74
2023/06/07 11:36:52;;;;;;;6.67;3.90;;;28.10;36.30;;;;;;5133148;28;20443;-74
2023/06/07 11:39:20;;;;;;;5.30;2.83;;;28.20;35.40;;;;;;5133620;27;20448;-74
2023/06/07 11:41:51;;;;;;;3.47;2.73;;;28.20;35.50;;;;;;5132712;27;20435;-74
2023/06/07 11:44:18;;;;;;;4.03;3.10;;;28.30;39.10;;;;;;5133305;27;20440;-74
2023/06/07 11:46:46;;;;;;;4.10;3.13;;;28.30;37.70;;;;;;5133774;28;20512;-74
2023/06/07 11:49:15;;;;;;;5.53;3.00;;;28.30;37.10;;;;;;5133847;27;20783;-75
2023/06/07 11:51:48;;;;;;;5.87;3.43;;;28.30;36.60;;;;;;5133728;27;20436;-74
2023/06/07 11:54:15;;;;;;;3.90;2.77;;;28.40;37.00;;;;;;5133399;27;20476;-74
2023/06/07 11:56:43;;;;;;;7.80;3.20;;;28.40;37.20;;;;;;5133529;28;20462;-74
2023/06/07 11:59:11;;;;;;;3.93;2.50;;;28.40;35.90;;;;;;5133777;27;20451;-74
2023/06/07 12:01:40;;;;;;;7.13;2.63;;;28.30;35.50;;;;;;5133744;27;20436;-74
2023/06/07 12:04:09;;;;;;;7.57;3.40;;;28.30;36.70;;;;;;5133500;27;20918;-74
2023/06/07 12:06:36;;;;;;;3.33;2.60;;;28.30;34.40;;;;;;5133569;27;20443;-74
2023/06/07 12:09:03;;;;;;;4.83;3.50;;;28.30;35.90;;;;;;5132831;28;20447;-74
2023/06/07 12:11:36;;;;;;;4.47;3.00;;;28.20;36.30;;;;;;5133105;27;20543;-75
2023/06/07 12:14:05;;;;;;;6.60;3.50;;;28.20;36.60;;;;;;5133256;27;20502;-75
2023/06/07 12:16:32;;;;;;;4.40;2.90;;;28.20;36.90;;;;;;5133174;27;20432;-74
2023/06/07 12:18:59;;;;;;;4.80;3.07;;;28.20;36.80;;;;;;5133304;27;20936;-74
2023/06/07 12:21:29;;;;;;;4.47;2.90;;;28.30;36.30;;;;;;5133231;27;20468;-74
2023/06/07 12:23:55;;;;;;;3.97;2.50;;;28.30;37.00;;;;;;5133427;27;20441;-74
2023/06/07 12:26:24;;;;;;;4.07;3.30;;;28.30;37.20;;;;;;5133320;27;20532;-74
2023/06/07 12:28:51;;;;;;;8.67;3.97;;;28.30;36.50;;;;;;5133376;28;20479;-74
2023/06/07 12:31:22;;;;;;;4.87;2.97;;;28.40;35.90;;;;;;5134556;27;20442;-75
2023/06/07 12:33:57;;;;;;;4.30;3.47;;;28.30;35.00;;;;;;5136626;27;20799;-74
2023/06/07 12:36:26;;;;;;;5.07;3.40;;;28.20;34.90;;;;;;5136941;27;20483;-74
2023/06/07 12:38:55;;;;;;;4.03;3.17;;;28.20;34.70;;;;;;5136823;27;20443;-74
2023/06/07 12:41:27;;;;;;;3.30;2.67;;;28.10;35.30;;;;;;5136698;27;20527;-74
2023/06/07 12:43:56;;;;;;;3.83;2.43;;;28.10;35.90;;;;;;5136476;27;20436;-74
2023/06/07 12:46:24;;;;;;;4.17;2.67;;;28.00;35.00;;;;;;5136831;27;20440;-75
2023/06/07 12:48:51;;;;;;;3.50;2.67;;;28.00;35.40;;;;;;5136578;27;20479;-74
2023/06/07 12:51:18;;;;;;;3.80;3.00;;;28.00;34.70;;;;;;5136566;27;20986;-74
2023/06/07 12:53:45;;;;;;;6.40;2.43;;;28.00;34.80;;;;;;5136592;27;20518;-74
2023/06/07 12:56:13;;;;;;;5.00;2.80;;;28.00;36.20;;;;;;5136586;27;20468;-76
2023/06/07 12:58:40;;;;;;;3.90;3.43;;;28.00;35.60;;;;;;5136691;27;20472;-75